Kezdőlap
METAR-TAF:

METAR-TAF

Repülőterek :

Natashquan, Québec, Kanada

földrajzi szélesség: 50-11N, földrajzi hosszúság: 061-49W, magasság: 7 m

Jelenlegi meteorológiai megfigyelések

A jelentés 17 perccel ezelõtt készült, 13:00 UTC
Délnyugati szél 12 kt széllökések: 17 kt
Hőmérséklet 11°C
Páratartalom 82%
Légköri nyomás 1005 hPa
Látótávolság: 14.5 km
Derült ég

METAR: CYNA 011300Z AUTO 22012G17KT 9SM CLR 11/08 A2969 RMK SLP055

Idő: 09:17 (13:17 UTC)

Előrejelzés

A jelentés 5 órával és 39 perccel ezelõtt készült, 07:38 UTC
Az előrejelzés 01-én 08 óra UTC és 01-én 20 óra UTC között érvényes
Nyugat-délnyugati szél 12 kt széllökések: 22 kt
Látótávolság: 10 km
Szórványos felhőzet 7000 lábon

TAF: CYNA 010738Z 0108/0120 25012G22KT P6SM SCT070 RMK FCST BASED ON AUTO OBS. NXT FCST BY 011400Z

Meteorológiai megfigyelések és előrejelzések több, mint 4000 repülőtéren (METAR és TAF jelentéseket).

A térképen piros és sárga pontok jelzik az elérhető meteorológiai állomásokat.

Mozgassa az egeret a pont fölött, hogy megjelenjen az állomás neve.

Azután kattintson az időjárási megfigyelések és előrejelzések megtekintéséhez.

A térkép megváltoztatása: kattintson a fekete keresztel jelölt zöld gombra ráközelítéshez, a vonallal jelölt zöld gombra távolításhoz, vagy a zöld nyilakra a szomszédos térképek eléréséhez.


METAR-TAF: